Main page
METAR-TAF:

METAR-TAF

Airports :

Wattisham, England

Wattisham Flying Station

latitude: 52-07N, longitude: 000-58E, elevation: 87 m

Current weather observation

The report was made 47 minutes ago, at 20:50 UTC
Wind 11 kt from the West/Southwest
Temperature 11°C
Humidity 87%
Pressure 1012 hPa
Visibility 10 km or more
Few clouds at a height of 3000 ft
Broken clouds at a height of 25000 ft

METAR: EGUW 232050Z 25011KT 9999 FEW030 BKN250 11/09 Q1012 BLU NOSIG

Time: 21:37 (21:37 UTC)

Forecast

The report was made 1 hour and 55 minutes ago, at 19:42 UTC
Forecast valid from 23 at 21 UTC to 24 at 01 UTC
Wind 12 kt from the Southwest
Visibility 10 km or more
Scattered clouds at a height of 3000 ft

TAF: EGUW 231942Z 2321/2401 23012KT 9999 SCT030

Weather observations and forecasts of more than 4000 airports (METAR and TAF reports).

The available stations are represented by yellow and red dots on the map.

Hover mouse over dot to see the name of the station.

Then click to see weather observations and forecasts.

To change the map : click on the green buttons with a black cross to zoom in, on the green button with a dash to zoom out, or on the green arrows for adjacent maps.


METAR-TAF: